NCAR-RAP Real-Time Weather Data

Output produced by METARs form (23 June 2018  19:29 UTC)
found at http://weather.rap.ucar.edu/surface/
 
RJCB 231100Z VRB03KT 9999 FEW050 BKN130 BKN/// 21/10 Q0999
RJCB 231000Z VRB03KT 9999 FEW050 BKN140 BKN/// 22/10 Q0999
RJCB 230900Z VRB04KT 9999 FEW050 BKN140 BKN/// 23/10 Q0999
RJCB 230800Z VRB05KT 9999 FEW050 BKN140 BKN/// 24/10 Q0997
RJCB 230700Z VRB07KT 9999 FEW050 SCT130 BKN/// 25/12 Q0997
RJCB 230600Z VRB06G16KT 9999 FEW050 SCT130 BKN/// 25/12 Q0997
RJCB 230500Z VRB04KT 9999 FEW050 SCT130 BKN/// 26/11 Q0998
RJCB 230400Z VRB05KT 9999 FEW050 SCT130 26/11 Q0998
RJCB 230300Z VRB04KT 9999 FEW040 27/12 Q0998
RJCB 230200Z VRB05G15KT 9999 FEW040 26/13 Q0999
RJCB 230100Z VRB04KT 9999 FEW040 26/12 Q1000
RJCB 230000Z 18003KT 130V240 9999 FEW040 25/16 Q1000
RJCB 222300Z 19003KT 140V270 9999 FEW040 21/15 Q1000
RJCB 222240Z 14004KT 110V170 9999 FEW040 SCT/// 20/14 Q1000 RMK 1CU040 A2956
RJCB 221100Z VRB01KT 9999 FEW030 SCT060 BKN/// 19/11 Q1000
RJCB 221000Z VRB02KT 9999 FEW030 SCT060 BKN/// 20/11 Q0999
RJCB 220900Z VRB02KT 9999 FEW030 SCT060 BKN/// 21/12 Q0999
RJCB 220800Z VRB01KT 9999 FEW030 SCT060 BKN/// 20/13 Q0998
RJCB 220700Z VRB01KT 9999 FEW030 SCT060 BKN/// 21/12 Q0998
RJCB 220600Z VRB02KT 9999 FEW030 SCT060 BKN/// 21/12 Q0998
RJCB 220500Z VRB03KT 9999 FEW030 SCT060 BKN/// 22/14 Q0998
RJCB 220400Z VRB02KT 9999 FEW030 SCT060 BKN/// 21/13 Q0998
RJCB 220300Z VRB02KT 9999 FEW030 SCT060 BKN/// 21/13 Q0998
RJCB 220200Z 36003KT 290V040 9999 FEW030 SCT050 BKN/// 20/14 Q0998
RJCB 220100Z 35003KT 310V040 9999 FEW020 SCT090 BKN/// 20/15 Q0998
RJCB 220000Z VRB02KT 9999 FEW015 SCT/// 19/14 Q0998
RJCB 212300Z VRB02KT 9999 FEW010 SCT040 19/14 Q0998
RJCB 212240Z VRB02KT 9999 FEW010 SCT040 17/16 Q0998 RMK 1ST010 3CU040 A2949
RJCB 211100Z VRB02KT 9999 FEW004 BKN006 BKN012 13/12 Q1000
RJCB 211000Z 17005KT 9999 FEW004 BKN006 BKN009 13/12 Q0999
RJCB 210900Z 15005KT 9999 FEW004 BKN006 BKN008 14/12 Q0999
RJCB 210800Z 17005KT 140V200 9999 FEW004 SCT006 BKN008 14/13 Q0999